Time;durP1;ratioP1;P1;durP2;ratioP2;P2;SDS_P1;SDS_P2;PMS_P1;PMS_P2;Temp;Humidity;BMP_temperature;BMP_pressure;BME280_temperature;BME280_humidity;BME280_pressure;Samples;Min_cycle;Max_cycle;Signal;HPM_P1;HPM_P2
2022/01/01 00:02:17;;;;;;;15.38;13.77;;;18.20;62.10;;;;;;5059543;28;20175;-60
2022/01/01 00:04:43;;;;;;;15.98;13.40;;;18.20;62.10;;;;;;5074196;28;20238;-59
2022/01/01 00:07:14;;;;;;;16.98;14.27;;;18.10;62.00;;;;;;5074239;28;20166;-60
2022/01/01 00:09:41;;;;;;;16.10;14.40;;;18.10;62.10;;;;;;5074313;28;20541;-59
2022/01/01 00:12:07;;;;;;;14.60;13.10;;;18.10;62.00;;;;;;5059403;28;20183;-60
2022/01/01 00:14:32;;;;;;;15.25;12.95;;;18.10;62.40;;;;;;5053569;28;20222;-60
2022/01/01 00:16:58;;;;;;;17.90;14.43;;;18.10;62.10;;;;;;5054569;28;20171;-61
2022/01/01 00:19:23;;;;;;;17.23;13.57;;;18.10;62.10;;;;;;5054074;28;20541;-59
2022/01/01 00:21:49;;;;;;;17.00;14.07;;;18.10;62.00;;;;;;5053654;28;20217;-60
2022/01/01 00:24:14;;;;;;;15.27;13.68;;;18.10;62.00;;;;;;5054518;28;20214;-59
2022/01/01 00:26:40;;;;;;;16.02;14.13;;;18.10;62.00;;;;;;5054109;28;20175;-60
2022/01/01 00:29:05;;;;;;;15.70;14.07;;;18.10;62.00;;;;;;5053497;28;20182;-61
2022/01/01 00:31:31;;;;;;;15.90;14.30;;;18.10;62.00;;;;;;5053952;28;20623;-60
2022/01/01 00:33:59;;;;;;;15.60;14.02;;;18.00;62.00;;;;;;5054085;28;20179;-60
2022/01/01 00:36:27;;;;;;;15.98;14.38;;;18.00;62.00;;;;;;5053134;28;20568;-60
2022/01/01 00:38:53;;;;;;;18.52;14.25;;;18.00;62.00;;;;;;5054415;28;20186;-60
2022/01/01 00:41:18;;;;;;;17.38;14.30;;;18.00;62.00;;;;;;5053389;28;20183;-60
2022/01/01 00:43:44;;;;;;;17.05;15.27;;;18.00;61.90;;;;;;5053961;28;20642;-59
2022/01/01 00:46:10;;;;;;;17.00;15.30;;;18.00;61.90;;;;;;5053280;28;20171;-59
2022/01/01 00:48:35;;;;;;;18.00;15.00;;;18.00;61.90;;;;;;5053697;28;20179;-60
2022/01/01 00:51:01;;;;;;;18.10;15.32;;;18.00;61.90;;;;;;5053871;28;20233;-60
2022/01/01 00:53:26;;;;;;;17.20;15.35;;;18.00;61.90;;;;;;5053868;28;20171;-59
2022/01/01 00:55:52;;;;;;;15.98;14.30;;;18.00;61.90;;;;;;5053206;28;20541;-59
2022/01/01 00:58:17;;;;;;;16.70;14.95;;;18.00;61.90;;;;;;5053921;28;20179;-61
2022/01/01 01:00:42;;;;;;;17.00;15.27;;;18.00;61.90;;;;;;5053500;28;20630;-60
2022/01/01 01:03:10;;;;;;;17.83;15.80;;;18.00;61.90;;;;;;5053064;28;20213;-61
2022/01/01 01:05:37;;;;;;;18.25;14.70;;;18.00;61.90;;;;;;5053511;28;20759;-60
2022/01/01 01:08:04;;;;;;;16.00;14.40;;;17.90;61.80;;;;;;5054166;28;20217;-60
2022/01/01 01:10:29;;;;;;;16.85;15.15;;;17.90;61.80;;;;;;5053782;28;20201;-60
2022/01/01 01:12:55;;;;;;;17.20;15.23;;;17.90;61.90;;;;;;5054004;28;20269;-60
2022/01/01 01:15:20;;;;;;;17.05;15.25;;;17.90;61.80;;;;;;5053491;28;20178;-61
2022/01/01 01:17:47;;;;;;;16.48;14.77;;;17.90;61.80;;;;;;5052954;28;20171;-59
2022/01/01 01:20:13;;;;;;;16.67;15.02;;;17.90;61.80;;;;;;5053981;28;20182;-59
2022/01/01 01:22:39;;;;;;;16.88;15.07;;;17.90;61.80;;;;;;5053379;28;20179;-59
2022/01/01 01:25:05;;;;;;;16.95;14.77;;;17.90;61.80;;;;;;5052610;28;20211;-59
2022/01/01 01:27:31;;;;;;;17.58;15.73;;;17.90;61.80;;;;;;5053068;28;20175;-60
2022/01/01 01:29:59;;;;;;;16.95;15.00;;;17.90;61.80;;;;;;5053237;28;20205;-59
2022/01/01 01:32:24;;;;;;;17.33;15.38;;;17.90;61.80;;;;;;5052187;28;20194;-59
2022/01/01 01:34:50;;;;;;;17.13;15.07;;;17.90;61.80;;;;;;5053451;28;20522;-59
2022/01/01 01:37:15;;;;;;;17.85;16.05;;;17.90;61.70;;;;;;5053437;28;20179;-59
2022/01/01 01:39:41;;;;;;;17.65;15.88;;;17.90;61.70;;;;;;5052306;28;20213;-59
2022/01/01 01:42:07;;;;;;;18.52;16.60;;;17.90;61.70;;;;;;5053342;28;20572;-59
2022/01/01 01:44:33;;;;;;;17.42;15.70;;;17.90;61.80;;;;;;5052682;28;20217;-59
2022/01/01 01:47:04;;;;;;;18.08;16.00;;;17.90;61.70;;;;;;5052567;28;20181;-60
2022/01/01 01:49:30;;;;;;;18.13;15.88;;;17.90;61.80;;;;;;5052683;28;20239;-59
2022/01/01 01:51:55;;;;;;;16.27;14.57;;;17.90;61.70;;;;;;5052409;28;20225;-59
2022/01/01 01:54:21;;;;;;;17.15;15.48;;;17.90;61.70;;;;;;5052722;28;20232;-60
2022/01/01 01:56:47;;;;;;;18.15;16.23;;;17.80;61.60;;;;;;5052707;28;20184;-60
2022/01/01 01:59:13;;;;;;;17.50;15.70;;;17.80;61.60;;;;;;5052525;28;20171;-60
2022/01/01 02:01:38;;;;;;;18.23;16.42;;;17.90;61.70;;;;;;5052754;28;20190;-60
2022/01/01 02:04:04;;;;;;;16.90;15.10;;;17.80;61.60;;;;;;5052826;28;20207;-60
2022/01/01 02:06:29;;;;;;;17.10;15.25;;;17.80;61.60;;;;;;5051716;28;20175;-58
2022/01/01 02:08:55;;;;;;;18.23;15.85;;;17.80;61.60;;;;;;5052720;28;20212;-59
2022/01/01 02:11:22;;;;;;;17.83;15.98;;;17.80;61.60;;;;;;5052276;28;20171;-60
2022/01/01 02:18:51;;;;;;;17.90;15.98;;;17.80;61.60;;;;;;5052770;28;20174;-60
2022/01/01 02:21:17;;;;;;;16.98;15.25;;;17.80;61.60;;;;;;5051805;28;20599;-60
2022/01/01 02:23:44;;;;;;;17.80;15.50;;;17.80;61.60;;;;;;5051954;28;20207;-61
2022/01/01 02:26:12;;;;;;;17.25;15.43;;;17.80;61.60;;;;;;5052370;28;20182;-60
2022/01/01 02:28:47;;;;;;;17.70;15.88;;;17.80;61.60;;;;;;5051275;28;20179;-60
2022/01/01 02:31:13;;;;;;;17.98;15.98;;;17.80;61.60;;;;;;5052464;28;20213;-60
2022/01/01 02:33:39;;;;;;;17.67;15.85;;;17.80;61.50;;;;;;5052130;28;20289;-59
2022/01/01 02:36:07;;;;;;;17.98;14.85;;;17.80;61.50;;;;;;5051708;28;20258;-59
2022/01/01 02:38:33;;;;;;;17.73;15.73;;;17.80;61.60;;;;;;5051779;28;20183;-59
2022/01/01 02:40:58;;;;;;;19.55;15.70;;;17.70;61.50;;;;;;5051326;28;20175;-60
2022/01/01 02:43:25;;;;;;;18.15;15.95;;;17.80;61.50;;;;;;5051677;28;20229;-60
2022/01/01 02:45:50;;;;;;;17.30;15.50;;;17.80;61.50;;;;;;5052266;28;20193;-59
2022/01/01 02:48:16;;;;;;;18.67;16.77;;;17.80;61.50;;;;;;5051479;28;20179;-60
2022/01/01 02:50:41;;;;;;;17.23;15.25;;;17.80;61.50;;;;;;5051466;28;20309;-60
2022/01/01 02:53:14;;;;;;;17.67;15.88;;;17.80;61.50;;;;;;5052068;28;20171;-61
2022/01/01 02:55:40;;;;;;;16.98;15.27;;;17.70;61.40;;;;;;5050867;28;20202;-61
2022/01/01 02:58:05;;;;;;;18.45;15.38;;;17.70;61.40;;;;;;5052267;28;20642;-61
2022/01/01 03:00:31;;;;;;;16.25;14.63;;;17.70;61.40;;;;;;5051657;28;20732;-61
2022/01/01 03:02:57;;;;;;;17.10;14.93;;;17.70;61.40;;;;;;5051259;28;20179;-61
2022/01/01 03:05:22;;;;;;;15.90;14.20;;;17.70;61.40;;;;;;5051669;28;20182;-60
2022/01/01 03:07:48;;;;;;;17.42;15.63;;;17.70;61.50;;;;;;5051974;28;20174;-59
2022/01/01 03:10:13;;;;;;;17.02;15.27;;;17.70;61.40;;;;;;5055519;28;20177;-60
2022/01/01 03:12:39;;;;;;;17.10;15.35;;;17.70;61.40;;;;;;5058251;28;20558;-61
2022/01/01 03:15:05;;;;;;;17.85;15.73;;;17.70;61.40;;;;;;5058346;28;20583;-61
2022/01/01 03:17:30;;;;;;;17.55;15.05;;;17.70;61.40;;;;;;5057452;28;20649;-60
2022/01/01 03:19:56;;;;;;;18.63;14.93;;;17.70;61.40;;;;;;5058400;28;20202;-58
2022/01/01 03:22:21;;;;;;;16.55;14.77;;;17.70;61.40;;;;;;5058229;28;20634;-61
2022/01/01 03:24:47;;;;;;;19.65;16.38;;;17.70;61.40;;;;;;5057634;28;20205;-60
2022/01/01 03:27:12;;;;;;;17.20;15.35;;;17.70;61.40;;;;;;5058350;28;20171;-59
2022/01/01 03:29:38;;;;;;;16.45;14.70;;;17.70;61.40;;;;;;5058142;28;20187;-61
2022/01/01 03:32:05;;;;;;;17.27;15.40;;;17.60;61.30;;;;;;5057655;28;20521;-60
2022/01/01 03:34:30;;;;;;;18.23;14.93;;;17.70;61.40;;;;;;5058091;28;20183;-60
2022/01/01 03:36:56;;;;;;;17.17;15.35;;;17.70;61.40;;;;;;5058625;28;20178;-59
2022/01/01 03:39:27;;;;;;;16.73;14.75;;;17.70;61.40;;;;;;5057282;28;20179;-60
2022/01/01 03:41:52;;;;;;;17.30;15.30;;;17.70;61.40;;;;;;5058596;28;20280;-60
2022/01/01 03:44:18;;;;;;;16.73;14.75;;;17.60;61.30;;;;;;5057657;28;20309;-60
2022/01/01 03:46:43;;;;;;;16.17;14.50;;;17.60;61.30;;;;;;5058083;28;20168;-61
2022/01/01 03:49:09;;;;;;;17.42;14.98;;;17.70;61.40;;;;;;5058114;28;20242;-60
2022/01/01 03:51:34;;;;;;;16.85;14.95;;;17.60;61.30;;;;;;5057176;28;20638;-60
2022/01/01 03:54:00;;;;;;;17.67;15.55;;;17.70;61.40;;;;;;5058196;28;20197;-60
2022/01/01 03:56:25;;;;;;;17.00;15.20;;;17.70;61.40;;;;;;5058160;28;20171;-61
2022/01/01 03:58:51;;;;;;;17.88;15.32;;;17.60;61.20;;;;;;5057561;28;20171;-60
2022/01/01 04:01:17;;;;;;;16.48;14.82;;;17.60;61.20;;;;;;5058013;28;20545;-59
2022/01/01 04:03:43;;;;;;;16.80;15.05;;;17.60;61.20;;;;;;5057813;28;20206;-60
2022/01/01 04:06:09;;;;;;;17.75;15.95;;;17.60;61.30;;;;;;5057374;28;20179;-59
2022/01/01 04:08:34;;;;;;;17.13;15.02;;;17.60;61.20;;;;;;5057838;28;20175;-60
2022/01/01 04:11:00;;;;;;;15.23;13.63;;;17.60;61.20;;;;;;5057935;28;20175;-60
2022/01/01 04:13:25;;;;;;;16.88;15.13;;;17.60;61.20;;;;;;5057233;28;20179;-60
2022/01/01 04:15:51;;;;;;;15.95;14.25;;;17.60;61.30;;;;;;5058174;28;20171;-60
2022/01/01 04:18:26;;;;;;;16.90;15.00;;;17.60;61.30;;;;;;5057975;28;20175;-60
2022/01/01 04:20:52;;;;;;;15.43;13.82;;;17.60;61.20;;;;;;5055143;28;20179;-60
2022/01/01 04:23:17;;;;;;;16.30;14.68;;;17.60;61.30;;;;;;5054543;28;20199;-61
2022/01/01 04:25:47;;;;;;;16.52;14.73;;;17.60;61.30;;;;;;5054988;28;20183;-60
2022/01/01 04:28:13;;;;;;;16.33;14.63;;;17.60;61.20;;;;;;5054198;28;20175;-59
2022/01/01 04:30:38;;;;;;;16.95;14.38;;;17.60;61.20;;;;;;5054481;28;20580;-60
2022/01/01 04:33:04;;;;;;;15.35;13.80;;;17.60;61.30;;;;;;5055047;28;20175;-60
2022/01/01 04:35:29;;;;;;;15.60;14.05;;;17.60;61.20;;;;;;5053359;28;20209;-60
2022/01/01 04:37:55;;;;;;;17.20;14.27;;;17.60;61.20;;;;;;5054453;28;20190;-60
2022/01/01 04:40:20;;;;;;;16.27;14.05;;;17.60;61.20;;;;;;5054095;28;20630;-60
2022/01/01 04:42:46;;;;;;;15.93;14.30;;;17.60;61.20;;;;;;5053961;28;20199;-60
2022/01/01 04:45:11;;;;;;;15.20;13.70;;;17.60;61.20;;;;;;5054425;28;20215;-60
2022/01/01 04:47:40;;;;;;;15.65;14.10;;;17.60;61.30;;;;;;5053343;28;20175;-60
2022/01/01 04:50:06;;;;;;;15.30;13.70;;;17.60;61.30;;;;;;5054258;28;20225;-60
2022/01/01 04:52:31;;;;;;;15.98;14.38;;;17.60;61.30;;;;;;5054195;28;20180;-60
2022/01/01 04:54:57;;;;;;;15.13;13.63;;;17.60;61.20;;;;;;5053706;28;20187;-60
2022/01/01 04:57:28;;;;;;;17.30;14.55;;;17.60;61.20;;;;;;5054103;28;20175;-60
2022/01/01 04:59:54;;;;;;;15.48;13.75;;;17.60;61.20;;;;;;5054227;28;20171;-60
2022/01/01 05:02:19;;;;;;;15.77;14.18;;;17.50;61.20;;;;;;5053082;28;20179;-60
2022/01/01 05:04:45;;;;;;;16.48;14.55;;;17.60;61.30;;;;;;5053863;28;20563;-60
2022/01/01 05:07:10;;;;;;;15.68;13.88;;;17.60;61.20;;;;;;5054128;28;20171;-61
2022/01/01 05:09:36;;;;;;;15.32;13.73;;;17.50;61.50;;;;;;5053081;28;20171;-60
2022/01/01 05:12:04;;;;;;;15.52;14.02;;;17.50;61.20;;;;;;5053859;28;20257;-61
2022/01/01 05:14:31;;;;;;;17.15;14.90;;;17.60;61.30;;;;;;5053604;28;20224;-59
2022/01/01 05:16:57;;;;;;;14.75;13.25;;;17.50;61.20;;;;;;5053005;28;20540;-61
2022/01/01 05:19:22;;;;;;;14.70;13.20;;;17.50;61.20;;;;;;5053252;28;20265;-60
2022/01/01 05:21:48;;;;;;;15.25;13.75;;;17.50;61.20;;;;;;5053889;28;20175;-61
2022/01/01 05:24:18;;;;;;;15.40;13.68;;;17.50;61.20;;;;;;5052735;28;20207;-59
2022/01/01 05:26:43;;;;;;;14.23;12.73;;;17.50;61.20;;;;;;5053441;28;20213;-59
2022/01/01 05:29:12;;;;;;;15.02;13.35;;;17.50;61.20;;;;;;5053703;28;20220;-61
2022/01/01 05:31:37;;;;;;;14.02;12.63;;;17.50;61.20;;;;;;5052620;28;20163;-60
2022/01/01 05:34:03;;;;;;;14.48;12.98;;;17.50;61.20;;;;;;5053043;28;20194;-60
2022/01/01 05:36:29;;;;;;;14.50;13.00;;;17.50;61.20;;;;;;5053244;28;20178;-60
2022/01/01 05:38:54;;;;;;;14.05;12.43;;;17.50;61.20;;;;;;5052803;28;20187;-60
2022/01/01 05:41:20;;;;;;;13.85;12.55;;;17.50;61.20;;;;;;5052924;28;20658;-62
2022/01/01 05:43:45;;;;;;;14.32;12.88;;;17.50;61.20;;;;;;5052432;28;20342;-59
2022/01/01 05:46:11;;;;;;;14.50;13.00;;;17.50;61.20;;;;;;5053262;28;20687;-60
2022/01/01 05:48:38;;;;;;;13.20;11.80;;;17.50;61.20;;;;;;5052836;28;20186;-59
2022/01/01 05:51:04;;;;;;;14.73;12.20;;;17.50;61.20;;;;;;5052256;28;20732;-60
2022/01/01 05:53:29;;;;;;;13.77;12.38;;;17.50;61.20;;;;;;5052899;28;20186;-60
2022/01/01 05:55:55;;;;;;;14.50;13.02;;;17.50;61.20;;;;;;5053009;28;20203;-60
2022/01/01 05:58:20;;;;;;;14.63;13.13;;;17.50;61.20;;;;;;5052163;28;20591;-60
2022/01/01 06:00:46;;;;;;;14.45;12.45;;;17.50;61.30;;;;;;5053060;28;20285;-60
2022/01/01 06:03:11;;;;;;;14.15;12.65;;;17.50;61.20;;;;;;5052933;28;20179;-59
2022/01/01 06:05:37;;;;;;;13.60;12.20;;;17.50;61.20;;;;;;5051632;28;20279;-59
2022/01/01 06:08:03;;;;;;;12.65;11.35;;;17.50;61.20;;;;;;5052986;28;20167;-59
2022/01/01 06:10:29;;;;;;;12.85;11.50;;;17.50;61.30;;;;;;5052843;28;20179;-60
2022/01/01 06:12:54;;;;;;;13.00;11.77;;;17.40;61.20;;;;;;5052368;28;20183;-60
2022/01/01 06:15:20;;;;;;;13.20;11.85;;;17.40;61.20;;;;;;5052357;28;20229;-60
2022/01/01 06:17:45;;;;;;;13.65;12.35;;;17.40;61.20;;;;;;5052576;28;20175;-59
2022/01/01 06:20:11;;;;;;;12.55;11.20;;;17.40;61.20;;;;;;5052048;28;20657;-59
2022/01/01 06:22:37;;;;;;;13.68;11.55;;;17.50;61.20;;;;;;5052484;28;20552;-59
2022/01/01 06:25:03;;;;;;;11.98;10.93;;;17.40;61.20;;;;;;5052391;28;20219;-59
2022/01/01 06:27:28;;;;;;;12.13;10.93;;;17.40;61.20;;;;;;5051423;28;20171;-59
2022/01/01 06:29:54;;;;;;;13.48;11.50;;;17.40;61.20;;;;;;5052511;28;20240;-58
2022/01/01 06:32:20;;;;;;;12.90;11.60;;;17.40;61.20;;;;;;5052032;28;20179;-59
2022/01/01 06:34:45;;;;;;;12.30;11.10;;;17.40;61.20;;;;;;5051649;28;20175;-59
2022/01/01 06:37:11;;;;;;;12.95;11.63;;;17.40;61.10;;;;;;5052484;28;20183;-58
2022/01/01 06:39:36;;;;;;;11.93;10.57;;;17.40;61.20;;;;;;5052381;28;20190;-60
2022/01/01 06:42:02;;;;;;;11.32;10.13;;;17.50;61.20;;;;;;5051595;28;20171;-62
2022/01/01 06:44:27;;;;;;;12.55;11.25;;;17.40;61.20;;;;;;5051195;28;20206;-60
2022/01/01 06:46:53;;;;;;;13.02;11.73;;;17.40;61.20;;;;;;5052103;28;20686;-61
2022/01/01 06:49:19;;;;;;;12.30;11.10;;;17.40;61.20;;;;;;5051036;28;20231;-60
2022/01/01 06:51:44;;;;;;;12.23;11.02;;;17.40;61.20;;;;;;5052001;28;20167;-61
2022/01/01 06:54:10;;;;;;;12.70;11.00;;;17.40;61.20;;;;;;5051416;28;20256;-60
2022/01/01 06:56:35;;;;;;;11.27;10.10;;;17.40;61.20;;;;;;5051997;28;20313;-61
2022/01/01 06:59:01;;;;;;;12.00;10.80;;;17.40;61.20;;;;;;5052007;28;20204;-60
2022/01/01 07:01:26;;;;;;;12.82;11.57;;;17.40;61.20;;;;;;5050901;28;20171;-60
2022/01/01 07:03:52;;;;;;;11.88;10.57;;;17.40;61.20;;;;;;5051764;28;20565;-60
2022/01/01 07:06:20;;;;;;;11.60;10.60;;;17.40;61.20;;;;;;5051761;28;20622;-61
2022/01/01 07:08:45;;;;;;;11.27;10.15;;;17.40;61.20;;;;;;5051422;28;20269;-60
2022/01/01 07:11:12;;;;;;;11.45;10.25;;;17.40;61.20;;;;;;5052155;28;20305;-60
2022/01/01 07:13:38;;;;;;;11.25;10.15;;;17.40;61.20;;;;;;5051654;28;20179;-60
2022/01/01 07:16:06;;;;;;;11.73;10.52;;;17.40;61.20;;;;;;5050997;28;20186;-60
2022/01/01 07:18:32;;;;;;;11.95;10.75;;;17.40;61.20;;;;;;5051767;28;20171;-59
2022/01/01 07:20:57;;;;;;;10.68;9.55;;;17.40;61.20;;;;;;5051895;28;20174;-60
2022/01/01 07:23:23;;;;;;;10.60;9.60;;;17.40;61.20;;;;;;5050697;28;20178;-60
2022/01/01 07:25:48;;;;;;;11.25;10.05;;;17.40;61.20;;;;;;5051782;28;20179;-60
2022/01/01 07:28:16;;;;;;;10.18;9.18;;;17.40;61.20;;;;;;5051819;28;20167;-59
2022/01/01 07:30:42;;;;;;;10.90;9.75;;;17.40;61.20;;;;;;5050673;28;20183;-60
2022/01/01 07:33:09;;;;;;;10.82;9.63;;;17.30;61.10;;;;;;5051893;28;20179;-60
2022/01/01 07:35:36;;;;;;;10.60;9.55;;;17.40;61.20;;;;;;5050012;28;20175;-59
2022/01/01 07:38:02;;;;;;;10.63;9.52;;;17.50;61.30;;;;;;5051075;28;20272;-60
2022/01/01 07:40:28;;;;;;;10.38;9.27;;;17.40;61.20;;;;;;5051432;28;20646;-60
2022/01/01 07:42:54;;;;;;;10.43;9.38;;;17.50;61.20;;;;;;5051885;28;20233;-61
2022/01/01 07:45:19;;;;;;;10.82;9.73;;;17.50;61.10;;;;;;5050426;28;20298;-60
2022/01/01 07:47:45;;;;;;;10.02;9.05;;;17.50;61.00;;;;;;5051623;28;20175;-59
2022/01/01 07:50:11;;;;;;;9.68;8.68;;;17.50;60.90;;;;;;5051473;28;20227;-60
2022/01/01 07:52:36;;;;;;;9.18;8.13;;;17.50;61.70;;;;;;5050603;28;20167;-59
2022/01/01 07:55:02;;;;;;;10.48;9.27;;;17.50;60.80;;;;;;5051716;28;20182;-60
2022/01/01 07:57:27;;;;;;;10.02;9.02;;;17.50;60.80;;;;;;5054423;28;20174;-59
2022/01/01 07:59:53;;;;;;;9.77;8.82;;;17.50;60.90;;;;;;5055065;28;20275;-60
2022/01/01 08:02:18;;;;;;;10.35;9.18;;;17.50;61.00;;;;;;5055259;28;20353;-60
2022/01/01 08:04:45;;;;;;;10.18;9.07;;;17.50;61.00;;;;;;5054218;28;20225;-60
2022/01/01 08:07:10;;;;;;;11.25;9.55;;;17.50;61.00;;;;;;5055139;28;20199;-59
2022/01/01 08:09:38;;;;;;;10.07;9.07;;;17.50;61.00;;;;;;5054679;28;20211;-59
2022/01/01 08:12:05;;;;;;;9.27;8.40;;;17.50;61.00;;;;;;5054402;28;20182;-60
2022/01/01 08:14:31;;;;;;;9.35;8.45;;;17.50;61.40;;;;;;5054544;28;20614;-61
2022/01/01 08:17:01;;;;;;;9.43;8.50;;;17.50;60.90;;;;;;5055047;28;20176;-60
2022/01/01 08:19:30;;;;;;;8.45;7.55;;;17.60;61.70;;;;;;5053807;28;20681;-60
2022/01/01 08:21:56;;;;;;;9.13;8.23;;;17.50;60.70;;;;;;5054899;28;20202;-61
2022/01/01 08:24:22;;;;;;;9.38;8.43;;;17.50;60.80;;;;;;5054456;28;20697;-61
2022/01/01 08:26:47;;;;;;;9.77;8.82;;;17.50;60.80;;;;;;5054069;28;20631;-61
2022/01/01 08:29:13;;;;;;;9.52;8.65;;;17.50;60.90;;;;;;5054555;28;20175;-60
2022/01/01 08:31:38;;;;;;;9.02;8.13;;;17.50;60.90;;;;;;5054625;28;20233;-65
2022/01/01 08:34:04;;;;;;;10.40;8.50;;;17.60;61.10;;;;;;5054071;28;20668;-65
2022/01/01 08:36:29;;;;;;;8.55;7.75;;;17.60;61.00;;;;;;5054084;28;20190;-66
2022/01/01 08:38:58;;;;;;;9.38;8.40;;;17.60;60.90;;;;;;5054237;28;20596;-66
2022/01/01 08:41:24;;;;;;;8.50;7.65;;;17.60;60.80;;;;;;5053075;28;20624;-66
2022/01/01 08:43:50;;;;;;;8.80;8.00;;;17.60;60.80;;;;;;5054376;28;20219;-66
2022/01/01 08:46:15;;;;;;;9.07;8.13;;;17.60;60.80;;;;;;5054198;28;20237;-66
2022/01/01 08:48:41;;;;;;;8.25;7.45;;;17.60;60.70;;;;;;5053052;28;20515;-66
2022/01/01 08:51:20;;;;;;;8.90;8.00;;;17.60;60.60;;;;;;5053882;28;20227;-65
2022/01/01 08:53:46;;;;;;;8.68;7.80;;;17.60;60.60;;;;;;5053340;28;20185;-65
2022/01/01 08:56:11;;;;;;;8.30;7.53;;;17.60;60.70;;;;;;5053973;28;20187;-65
2022/01/01 08:58:37;;;;;;;8.23;7.43;;;17.70;60.80;;;;;;5053599;28;20473;-65
2022/01/01 09:01:03;;;;;;;7.57;6.88;;;17.70;60.80;;;;;;5053223;28;20171;-66
2022/01/01 09:03:28;;;;;;;8.00;7.25;;;17.70;60.80;;;;;;5053522;28;20207;-66
2022/01/01 09:05:54;;;;;;;8.43;7.45;;;17.70;60.70;;;;;;5053701;28;20210;-65
2022/01/01 09:08:19;;;;;;;8.65;7.13;;;17.70;60.70;;;;;;5052086;28;20684;-67
2022/01/01 09:10:45;;;;;;;8.50;7.38;;;17.70;60.70;;;;;;5054217;28;20179;-65
2022/01/01 09:13:10;;;;;;;7.45;6.85;;;17.60;60.70;;;;;;5053702;28;20535;-64
2022/01/01 09:15:36;;;;;;;8.18;7.38;;;17.60;60.70;;;;;;5052636;28;20507;-66
2022/01/01 09:18:01;;;;;;;7.57;6.88;;;17.60;60.70;;;;;;5053572;28;20476;-64
2022/01/01 09:20:27;;;;;;;8.13;7.35;;;17.60;60.60;;;;;;5053307;28;20175;-65
2022/01/01 09:22:52;;;;;;;7.55;6.85;;;17.60;60.60;;;;;;5052720;28;20502;-64
2022/01/01 09:25:18;;;;;;;7.45;6.75;;;17.60;60.70;;;;;;5053171;28;20202;-65
2022/01/01 09:27:43;;;;;;;8.07;7.35;;;17.80;60.90;;;;;;5053306;28;20175;-65
2022/01/01 09:30:09;;;;;;;7.85;6.88;;;17.60;60.70;;;;;;5052837;28;20225;-65
2022/01/01 09:32:36;;;;;;;7.82;7.13;;;17.60;60.90;;;;;;5052871;28;20174;-65
2022/01/01 09:35:05;;;;;;;8.35;6.90;;;17.60;61.00;;;;;;5053237;28;20203;-64
2022/01/01 09:37:34;;;;;;;6.72;6.13;;;17.60;61.20;;;;;;5052138;28;20182;-63
2022/01/01 09:40:02;;;;;;;10.57;7.28;;;17.60;61.00;;;;;;5052978;28;20646;-64
2022/01/01 09:42:28;;;;;;;6.75;6.07;;;17.60;61.10;;;;;;5052788;28;20229;-62
2022/01/01 09:44:53;;;;;;;7.70;6.72;;;17.60;61.20;;;;;;5050892;28;20608;-65
2022/01/01 09:47:20;;;;;;;7.13;6.43;;;17.60;61.50;;;;;;5052146;28;20194;-65
2022/01/01 09:49:45;;;;;;;7.55;6.35;;;17.60;61.40;;;;;;5060098;28;20223;-65
2022/01/01 09:52:13;;;;;;;7.60;6.70;;;17.70;61.20;;;;;;5063689;28;20604;-64
2022/01/01 09:54:39;;;;;;;8.27;7.10;;;17.60;61.10;;;;;;5072686;28;20182;-64
2022/01/01 09:57:04;;;;;;;6.78;6.03;;;17.60;61.10;;;;;;5068667;28;20174;-65
2022/01/01 09:59:30;;;;;;;6.82;6.10;;;17.60;61.20;;;;;;5072382;28;20186;-64
2022/01/01 10:01:56;;;;;;;6.10;5.50;;;17.60;61.10;;;;;;5072670;28;20166;-65
2022/01/01 10:04:21;;;;;;;6.80;6.20;;;17.60;61.00;;;;;;5064953;28;20259;-64
2022/01/01 10:07:03;;;;;;;6.68;5.65;;;17.60;61.00;;;;;;5052475;28;20266;-64
2022/01/01 10:09:35;;;;;;;6.55;5.80;;;17.60;61.00;;;;;;5052211;28;20175;-63
2022/01/01 10:12:01;;;;;;;6.68;6.07;;;17.60;61.00;;;;;;5051655;28;20602;-66
2022/01/01 10:14:34;;;;;;;7.07;6.47;;;17.60;61.00;;;;;;5052075;28;20240;-65
2022/01/01 10:16:59;;;;;;;7.22;6.50;;;17.60;60.90;;;;;;5052366;28;20719;-66
2022/01/01 10:19:31;;;;;;;7.40;6.45;;;17.60;60.90;;;;;;5050298;28;20171;-65
2022/01/01 10:21:57;;;;;;;6.25;5.65;;;17.60;60.90;;;;;;5063105;28;20220;-65
2022/01/01 10:27:42;;;;;;;7.35;6.65;;;17.60;60.90;;;;;;5070026;28;20280;-64
2022/01/01 10:29:56;;;;;;;6.55;5.95;;;17.60;60.90;;;;;;5072002;28;20660;-65
2022/01/01 10:32:21;;;;;;;6.80;6.05;;;17.60;60.80;;;;;;5053432;28;20175;-64
2022/01/01 10:34:47;;;;;;;6.30;5.70;;;17.60;60.80;;;;;;5054429;28;20175;-65
2022/01/01 10:37:14;;;;;;;7.88;5.50;;;17.60;60.80;;;;;;5072147;28;20198;-64
2022/01/01 10:39:52;;;;;;;6.40;5.78;;;17.70;60.90;;;;;;5071023;28;20649;-64
2022/01/01 10:42:18;;;;;;;6.50;5.70;;;17.60;60.80;;;;;;5071820;28;20231;-64
2022/01/01 10:44:49;;;;;;;7.10;5.53;;;17.70;60.90;;;;;;5071760;28;20214;-64
2022/01/01 10:47:24;;;;;;;5.82;5.20;;;17.70;60.80;;;;;;5071149;28;20516;-65
2022/01/01 10:50:03;;;;;;;7.35;5.70;;;17.70;60.80;;;;;;5071839;28;20218;-64
2022/01/01 10:52:28;;;;;;;5.93;5.32;;;17.70;60.80;;;;;;5071510;28;20174;-63
2022/01/01 10:54:54;;;;;;;5.97;5.38;;;17.70;60.80;;;;;;5070091;28;20244;-65
2022/01/01 10:57:28;;;;;;;5.72;4.90;;;17.70;60.80;;;;;;5051550;28;20834;-64
2022/01/01 11:00:17;;;;;;;6.38;5.75;;;17.80;60.70;;;;;;5051689;28;20535;-64
2022/01/01 11:02:52;;;;;;;5.97;5.38;;;17.80;60.50;;;;;;5051155;28;20179;-64
2022/01/01 11:05:31;;;;;;;5.05;4.60;;;17.90;60.50;;;;;;5051534;28;20550;-64
2022/01/01 11:07:56;;;;;;;6.85;5.05;;;17.80;60.40;;;;;;5051202;28;20178;-64
2022/01/01 11:10:22;;;;;;;5.95;5.18;;;17.90;60.50;;;;;;5051556;28;20273;-65
2022/01/01 11:12:48;;;;;;;5.70;5.07;;;17.80;60.40;;;;;;5051477;28;20175;-63
2022/01/01 11:15:16;;;;;;;5.80;5.03;;;17.80;60.50;;;;;;5050804;28;20656;-65
2022/01/01 11:17:42;;;;;;;5.55;5.05;;;17.80;60.50;;;;;;5051011;28;20171;-64
2022/01/01 11:20:08;;;;;;;6.15;5.07;;;17.80;60.50;;;;;;5051269;28;20630;-65
2022/01/01 11:22:34;;;;;;;5.38;4.47;;;17.80;60.50;;;;;;5050651;28;20254;-65
2022/01/01 11:24:59;;;;;;;5.55;4.95;;;17.80;60.50;;;;;;5051484;28;20210;-65
2022/01/01 11:27:28;;;;;;;5.57;5.07;;;17.80;60.60;;;;;;5051201;28;20179;-64
2022/01/01 11:29:54;;;;;;;6.03;4.72;;;17.80;60.60;;;;;;5050811;28;20187;-65
2022/01/01 11:32:27;;;;;;;5.93;5.30;;;17.80;60.60;;;;;;5037360;28;20236;-66
2022/01/01 11:34:53;;;;;;;5.50;4.90;;;17.80;60.70;;;;;;5038482;28;20618;-65
2022/01/01 11:37:22;;;;;;;4.97;4.47;;;17.80;60.80;;;;;;5054750;28;20175;-64
2022/01/01 11:39:47;;;;;;;5.40;4.90;;;17.80;60.80;;;;;;5055478;28;20489;-64
2022/01/01 11:42:14;;;;;;;5.05;4.60;;;17.80;60.70;;;;;;5054051;28;20175;-64
2022/01/01 11:44:53;;;;;;;5.20;4.70;;;17.80;60.70;;;;;;5054099;28;20353;-65
2022/01/01 11:47:20;;;;;;;5.70;4.90;;;17.80;61.60;;;;;;5055126;28;20193;-64
2022/01/01 11:49:49;;;;;;;5.60;4.82;;;17.80;60.60;;;;;;5054504;28;20996;-63
2022/01/01 11:52:41;;;;;;;5.82;4.38;;;17.80;60.60;;;;;;5055311;28;20304;-64
2022/01/01 11:55:14;;;;;;;4.82;3.90;;;17.80;60.60;;;;;;5057729;28;20262;-67
2022/01/01 11:57:53;;;;;;;5.22;4.72;;;17.80;60.70;;;;;;5074016;28;20576;-65
2022/01/01 12:00:21;;;;;;;4.72;4.03;;;17.70;60.60;;;;;;5074915;28;20186;-66
2022/01/01 12:02:49;;;;;;;5.03;4.50;;;17.70;60.70;;;;;;5074984;28;20486;-65
2022/01/01 12:05:22;;;;;;;5.03;4.35;;;17.70;60.60;;;;;;5073877;28;20297;-64
2022/01/01 12:07:54;;;;;;;4.80;4.40;;;17.80;60.70;;;;;;5074750;28;20641;-65
2022/01/01 12:10:24;;;;;;;4.53;3.63;;;17.80;60.80;;;;;;5074374;28;20200;-66
2022/01/01 12:13:11;;;;;;;5.28;4.30;;;17.70;61.50;;;;;;5074068;28;20179;-65
2022/01/01 12:15:44;;;;;;;4.05;3.65;;;17.70;60.60;;;;;;5074448;28;20179;-64
2022/01/01 12:18:20;;;;;;;5.43;4.22;;;17.80;60.70;;;;;;5073879;28;20175;-66
2022/01/01 12:20:52;;;;;;;4.55;4.00;;;17.70;60.70;;;;;;5074999;28;20178;-63
2022/01/01 12:23:24;;;;;;;5.07;4.57;;;17.80;61.10;;;;;;5074489;28;20258;-63
2022/01/01 12:25:51;;;;;;;6.28;3.97;;;17.70;61.70;;;;;;5073717;28;20198;-63
2022/01/01 12:28:31;;;;;;;8.30;4.88;;;17.70;61.20;;;;;;5074616;28;20175;-66
2022/01/01 12:31:12;;;;;;;5.20;4.30;;;17.70;61.70;;;;;;5074636;28;20178;-65
2022/01/01 12:33:38;;;;;;;5.53;3.97;;;17.70;61.40;;;;;;5073373;28;20719;-63
2022/01/01 12:36:08;;;;;;;6.32;4.35;;;17.70;61.50;;;;;;5074201;28;20253;-66
2022/01/01 12:38:35;;;;;;;5.25;3.63;;;17.70;61.40;;;;;;5073808;28;20178;-65
2022/01/01 12:41:04;;;;;;;4.80;4.25;;;17.80;61.50;;;;;;5073180;28;20258;-66
2022/01/01 12:43:32;;;;;;;4.95;4.15;;;17.80;61.40;;;;;;5072555;28;20185;-66